Time;durP1;ratioP1;P1;durP2;ratioP2;P2;SDS_P1;SDS_P2;PMS_P1;PMS_P2;Temp;Humidity;BMP_temperature;BMP_pressure;BME280_temperature;BME280_humidity;BME280_pressure;Samples;Min_cycle;Max_cycle;Signal;HPM_P1;HPM_P2
2023/12/30 00:01:29;;;;;;;12.88;2.50;;;;;;;6.88;100.00;100925.16;5052866;28;20476;-82
2023/12/30 00:03:54;;;;;;;13.65;2.30;;;;;;;6.61;100.00;100894.75;5052993;28;20469;-81
2023/12/30 00:06:20;;;;;;;8.90;2.25;;;;;;;6.89;100.00;100955.09;5052288;28;20056;-81
2023/12/30 00:08:45;;;;;;;10.00;2.17;;;;;;;6.84;100.00;100959.59;5052755;28;20043;-80
2023/12/30 00:11:11;;;;;;;10.77;2.15;;;;;;;6.72;100.00;100930.19;5052766;28;20035;-79
2023/12/30 00:13:39;;;;;;;11.88;2.15;;;;;;;6.88;100.00;100972.22;5052752;28;20025;-79
2023/12/30 00:16:05;;;;;;;8.05;2.00;;;;;;;6.54;100.00;100913.03;5052701;28;20130;-80
2023/12/30 00:18:30;;;;;;;11.38;2.40;;;;;;;6.75;100.00;100942.03;5052639;28;20029;-79
2023/12/30 00:20:56;;;;;;;11.93;2.90;;;;;;;6.78;100.00;100967.56;5052767;28;20078;-81
2023/12/30 00:23:22;;;;;;;14.32;2.33;;;;;;;6.81;100.00;100977.72;5051243;28;20036;-78
2023/12/30 00:25:47;;;;;;;9.38;2.08;;;;;;;6.56;100.00;100936.91;5052604;28;20020;-79
2023/12/30 00:28:12;;;;;;;10.45;2.25;;;;;;;6.62;100.00;100952.03;5052522;28;20017;-78
2023/12/30 00:30:38;;;;;;;8.32;2.03;;;;;;;6.83;100.00;100993.88;5052389;28;20021;-79
2023/12/30 00:33:04;;;;;;;8.65;2.05;;;;;;;6.81;100.00;100998.25;5052370;28;20476;-82
2023/12/30 00:35:29;;;;;;;8.75;2.00;;;;;;;6.73;100.00;100987.47;5052516;28;20025;-80
2023/12/30 00:37:55;;;;;;;8.40;2.33;;;;;;;6.77;100.00;101002.66;5052542;28;20104;-79
2023/12/30 00:40:20;;;;;;;11.82;2.35;;;;;;;6.48;100.00;100960.31;5052469;28;20383;-78
2023/12/30 00:42:45;;;;;;;10.85;2.28;;;;;;;6.56;100.00;100978.78;5052094;28;20449;-79
2023/12/30 00:45:11;;;;;;;10.00;2.33;;;;;;;6.63;100.00;100984.47;5052347;28;20094;-79
2023/12/30 00:47:36;;;;;;;13.55;2.63;;;;;;;6.61;100.00;100979.41;5052381;28;20377;-79
2023/12/30 00:50:02;;;;;;;11.50;2.25;;;;;;;6.58;100.00;100989.78;5052260;28;20415;-79
2023/12/30 00:52:27;;;;;;;9.65;2.05;;;;;;;6.59;100.00;100996.63;5052411;28;20035;-80
2023/12/30 00:54:52;;;;;;;14.77;2.72;;;;;;;6.59;100.00;101001.75;5052247;28;20104;-80
2023/12/30 00:57:18;;;;;;;11.07;2.47;;;;;;;6.43;100.00;100987.09;5052029;28;20035;-79
2023/12/30 00:59:43;;;;;;;9.85;1.98;;;;;;;6.56;100.00;101013.88;5052202;28;20021;-79
2023/12/30 01:02:08;;;;;;;8.85;1.98;;;;;;;6.48;100.00;101016.75;5052147;28;20033;-81
2023/12/30 01:04:34;;;;;;;11.07;2.20;;;;;;;6.50;100.00;101019.28;5052355;28;20048;-79
2023/12/30 01:06:59;;;;;;;12.35;2.65;;;;;;;6.47;100.00;101029.66;5033910;28;20037;-79
2023/12/30 01:09:24;;;;;;;9.68;1.95;;;;;;;6.24;100.00;100995.56;5051831;28;20024;-79
2023/12/30 01:11:50;;;;;;;13.40;3.08;;;;;;;6.45;100.00;101027.16;5051892;28;20068;-79
2023/12/30 01:14:15;;;;;;;10.57;2.20;;;;;;;6.19;100.00;100983.81;5059018;23;20076;-79
2023/12/30 01:16:40;;;;;;;8.60;2.05;;;;;;;6.46;100.00;101036.50;5053361;28;20459;-78
2023/12/30 01:19:06;;;;;;;9.75;2.35;;;;;;;6.36;100.00;101017.28;5055981;28;20508;-79
2023/12/30 01:21:31;;;;;;;8.30;2.20;;;;;;;6.35;100.00;101010.50;5055754;28;20124;-79
2023/12/30 01:23:56;;;;;;;14.02;2.30;;;;;;;6.43;100.00;101026.41;5055956;28;20103;-80
2023/12/30 01:26:23;;;;;;;12.85;2.65;;;;;;;6.39;100.00;101034.25;5056034;28;20485;-79
2023/12/30 01:28:48;;;;;;;11.70;2.22;;;;;;;6.37;100.00;101044.59;5055913;28;20032;-79
2023/12/30 01:31:16;;;;;;;9.00;2.08;;;;;;;6.18;100.00;101012.91;5055588;28;20102;-79
2023/12/30 01:33:41;;;;;;;9.43;2.25;;;;;;;6.24;100.00;101028.91;5054619;28;20025;-79
2023/12/30 01:36:07;;;;;;;13.65;2.63;;;;;;;6.26;100.00;101028.81;5055760;28;20036;-79
2023/12/30 01:38:33;;;;;;;10.82;2.13;;;;;;;6.41;100.00;101045.31;5055753;28;20170;-79
2023/12/30 01:41:00;;;;;;;8.82;2.22;;;;;;;6.32;100.00;101033.72;5055405;28;20025;-79
2023/12/30 01:43:27;;;;;;;7.60;2.20;;;;;;;6.23;100.00;101014.41;5055429;28;20021;-79
2023/12/30 01:45:55;;;;;;;11.02;2.80;;;;;;;6.23;100.00;101009.28;5037558;28;20128;-79
2023/12/30 01:48:22;;;;;;;9.23;2.00;;;;;;;6.28;100.00;101024.47;5055339;28;20588;-79
2023/12/30 01:50:51;;;;;;;12.15;2.42;;;;;;;6.23;100.00;101024.66;5055503;28;20461;-79
2023/12/30 01:53:17;;;;;;;9.43;2.17;;;;;;;6.37;100.00;101056.59;5055157;28;20033;-79
2023/12/30 01:55:44;;;;;;;11.73;2.50;;;;;;;6.09;100.00;101016.69;5055237;28;20025;-79
2023/12/30 01:58:11;;;;;;;13.68;3.05;;;;;;;6.11;100.00;101030.31;5055295;28;20028;-79
2023/12/30 02:00:38;;;;;;;14.57;2.42;;;;;;;6.22;100.00;101060.63;5055272;28;20380;-79
2023/12/30 02:03:04;;;;;;;15.25;2.40;;;;;;;6.31;100.00;101075.66;5055097;28;20082;-80
2023/12/30 02:05:30;;;;;;;12.23;2.90;;;;;;;6.30;100.00;101074.81;5055332;28;20056;-80
2023/12/30 02:07:57;;;;;;;12.52;2.67;;;;;;;6.26;100.00;101067.28;5055138;28;20049;-81
2023/12/30 02:10:22;;;;;;;11.95;3.15;;;;;;;6.26;100.00;101072.44;5054973;28;20032;-80
2023/12/30 02:12:47;;;;;;;10.93;2.40;;;;;;;6.30;100.00;101071.41;5054732;28;20404;-80
2023/12/30 02:15:15;;;;;;;11.02;2.90;;;;;;;6.23;100.00;101062.31;5055173;28;20503;-80
2023/12/30 02:17:40;;;;;;;13.65;2.60;;;;;;;6.25;100.00;101078.47;5054815;28;20025;-80
2023/12/30 02:20:06;;;;;;;10.48;2.70;;;;;;;5.98;100.00;101037.66;5054904;28;20025;-80
2023/12/30 02:22:34;;;;;;;11.20;2.30;;;;;;;6.08;100.00;101053.50;5054846;28;20037;-80
2023/12/30 02:25:00;;;;;;;12.85;2.90;;;;;;;6.19;100.00;101076.97;5054737;28;20044;-80
2023/12/30 02:27:26;;;;;;;9.88;2.10;;;;;;;6.13;100.00;101071.25;5054039;28;20055;-79
2023/12/30 02:29:51;;;;;;;11.38;2.78;;;;;;;6.09;100.00;101062.84;5052754;28;20032;-80
2023/12/30 02:32:16;;;;;;;12.13;2.63;;;;;;;6.11;100.00;101065.38;5054498;28;20037;-80
2023/12/30 02:34:42;;;;;;;10.82;2.17;;;;;;;6.10;100.00;101071.41;5054898;28;20032;-80
2023/12/30 02:37:07;;;;;;;13.52;2.40;;;;;;;6.14;100.00;101091.72;5053359;28;20531;-81
2023/12/30 02:39:32;;;;;;;11.60;2.30;;;;;;;6.16;100.00;101107.88;5054531;28;20037;-81
2023/12/30 02:41:58;;;;;;;11.52;2.50;;;;;;;5.96;100.00;101070.22;5054326;28;20033;-81
2023/12/30 02:44:23;;;;;;;10.52;2.38;;;;;;;5.97;100.00;101068.47;5054429;28;20078;-80
2023/12/30 02:46:49;;;;;;;10.82;3.05;;;;;;;6.15;100.00;101095.94;5054470;28;20029;-79
2023/12/30 02:49:14;;;;;;;14.00;2.95;;;;;;;6.01;100.00;101073.44;5054183;28;20021;-79
2023/12/30 02:51:39;;;;;;;13.35;3.20;;;;;;;6.17;100.00;101101.00;5036364;28;20067;-80
2023/12/30 02:54:05;;;;;;;17.35;2.67;;;;;;;6.16;100.00;101099.34;5054350;28;20028;-80
2023/12/30 02:56:30;;;;;;;10.63;2.55;;;;;;;5.91;100.00;101050.81;5035914;28;20037;-80
2023/12/30 02:58:58;;;;;;;12.48;3.47;;;;;;;6.26;100.00;101104.03;5036544;28;20036;-80
2023/12/30 03:01:25;;;;;;;11.52;3.08;;;;;;;6.28;100.00;101111.66;5054144;28;20025;-80
2023/12/30 03:03:56;;;;;;;17.05;4.10;;;;;;;6.29;100.00;101109.06;5053734;28;20566;-80
2023/12/30 03:06:22;;;;;;;11.80;3.88;;;;;;;5.98;100.00;101059.88;5054078;28;20028;-79
2023/12/30 03:08:48;;;;;;;14.20;4.30;;;;;;;6.27;100.00;101099.72;5054172;28;20025;-79
2023/12/30 03:11:14;;;;;;;14.27;4.40;;;;;;;6.17;100.00;101088.19;5035942;28;20033;-80
2023/12/30 03:13:39;;;;;;;19.77;4.78;;;;;;;6.25;100.00;101111.78;5053918;28;20116;-80
2023/12/30 03:16:05;;;;;;;11.82;4.50;;;;;;;6.23;100.00;101109.28;5053961;28;20036;-79
2023/12/30 03:18:31;;;;;;;14.32;3.97;;;;;;;6.12;100.00;101106.34;5053486;28;20440;-80
2023/12/30 03:20:56;;;;;;;15.98;4.07;;;;;;;6.17;100.00;101113.81;5053754;28;20028;-81
2023/12/30 03:23:22;;;;;;;13.68;3.58;;;;;;;6.10;100.00;101097.03;5053791;28;20032;-80
2023/12/30 03:25:47;;;;;;;11.63;3.33;;;;;;;6.12;100.00;101098.63;5053407;28;20017;-80
2023/12/30 03:28:13;;;;;;;15.70;4.25;;;;;;;5.99;100.00;101085.44;5035565;28;20037;-78
2023/12/30 03:30:38;;;;;;;18.38;3.60;;;;;;;6.17;100.00;101113.81;5053524;28;20078;-80
2023/12/30 03:33:03;;;;;;;11.27;2.80;;;;;;;6.12;100.00;101118.31;5053225;28;20025;-80
2023/12/30 03:35:29;;;;;;;14.70;3.45;;;;;;;6.09;100.00;101119.25;5053410;28;20385;-79
2023/12/30 03:37:54;;;;;;;14.20;3.95;;;;;;;6.01;100.00;101109.31;5053593;28;20116;-80
2023/12/30 03:42:54;;;;;;;12.93;2.97;;;;;;;5.95;100.00;101108.72;5308662;23;20083;-79
2023/12/30 03:45:20;;;;;;;16.38;3.50;;;;;;;5.99;100.00;101123.06;5053102;28;20017;-80
2023/12/30 03:47:45;;;;;;;13.77;2.97;;;;;;;5.85;100.00;101099.69;5053161;28;20047;-80
2023/12/30 03:52:35;;;;;;;15.07;2.80;;;;;;;5.60;100.00;101072.44;5077775;23;20413;-79
2023/12/30 03:55:01;;;;;;;15.30;2.85;;;;;;;5.89;100.00;101114.88;5053053;28;20275;-80
2023/12/30 03:57:26;;;;;;;17.05;3.08;;;;;;;5.97;100.00;101119.75;5052801;28;20044;-80
2023/12/30 03:59:52;;;;;;;14.63;3.58;;;;;;;5.98;100.00;101121.41;5052885;28;20021;-80
2023/12/30 04:02:20;;;;;;;14.85;3.35;;;;;;;5.75;100.00;101076.97;5052887;28;20055;-80
2023/12/30 04:04:49;;;;;;;12.98;2.47;;;;;;;5.97;100.00;101124.88;5052786;28;20024;-80
2023/12/30 04:07:14;;;;;;;14.68;3.20;;;;;;;5.94;100.00;101120.69;5053199;28;20029;-81
2023/12/30 04:09:40;;;;;;;18.55;2.97;;;;;;;5.88;100.00;101120.91;5053354;28;20039;-81
2023/12/30 04:12:06;;;;;;;15.07;2.85;;;;;;;5.91;100.00;101128.53;5052705;28;20465;-80
2023/12/30 04:14:31;;;;;;;15.02;3.13;;;;;;;5.90;100.00;101124.28;5052788;28;20530;-80
2023/12/30 04:16:56;;;;;;;13.63;2.85;;;;;;;5.92;100.00;101131.91;5052685;28;20025;-80
2023/12/30 04:19:24;;;;;;;15.25;3.00;;;;;;;5.79;100.00;101118.69;5052566;28;20074;-80
2023/12/30 04:21:49;;;;;;;18.65;3.35;;;;;;;5.88;100.00;101133.72;5052794;28;20037;-80
2023/12/30 04:24:14;;;;;;;18.30;3.33;;;;;;;5.87;100.00;101128.66;5052727;28;20035;-81
2023/12/30 04:26:40;;;;;;;16.67;2.92;;;;;;;5.65;100.00;101096.16;5052546;28;20052;-80
2023/12/30 04:29:05;;;;;;;11.55;2.90;;;;;;;5.78;100.00;101127.28;5052335;28;20037;-80
2023/12/30 04:31:30;;;;;;;9.63;2.47;;;;;;;5.67;100.00;101116.59;5052561;28;20066;-80
2023/12/30 04:33:56;;;;;;;13.13;2.30;;;;;;;5.68;100.00;101123.38;5052602;28;20025;-81
2023/12/30 04:36:21;;;;;;;15.70;2.78;;;;;;;5.70;100.00;101124.16;5052475;28;20486;-80
2023/12/30 04:38:46;;;;;;;15.48;3.28;;;;;;;5.61;100.00;101121.97;5052652;28;20032;-80
2023/12/30 04:41:12;;;;;;;12.45;2.50;;;;;;;5.55;100.00;101125.59;5052446;28;20131;-80
2023/12/30 04:43:37;;;;;;;12.98;3.10;;;;;;;5.38;100.00;101099.75;5052400;28;20112;-80
2023/12/30 04:46:02;;;;;;;15.02;2.85;;;;;;;5.47;100.00;101125.03;5052475;28;20465;-80
2023/12/30 04:48:28;;;;;;;12.70;2.60;;;;;;;5.53;100.00;101147.88;5052461;28;20025;-80
2023/12/30 04:50:53;;;;;;;14.38;2.88;;;;;;;5.48;100.00;101152.31;5052220;28;20068;-80
2023/12/30 04:53:19;;;;;;;14.90;3.10;;;;;;;5.48;100.00;101153.16;5038188;28;20049;-81
2023/12/30 04:55:44;;;;;;;13.40;2.78;;;;;;;5.10;100.00;101098.19;5056763;28;20548;-81
2023/12/30 04:58:09;;;;;;;11.00;2.72;;;;;;;5.25;100.00;101119.03;5056328;28;20376;-80
2023/12/30 05:00:35;;;;;;;12.32;2.67;;;;;;;5.29;100.00;101120.59;5056512;28;20421;-81
2023/12/30 05:03:00;;;;;;;14.57;3.05;;;;;;;5.18;100.00;101105.63;5056333;28;20033;-81
2023/12/30 05:05:25;;;;;;;15.38;3.00;;;;;;;5.34;100.00;101136.63;5056450;28;20021;-80
2023/12/30 05:07:51;;;;;;;12.35;2.67;;;;;;;5.28;100.00;101132.56;5037876;28;20037;-81
2023/12/30 05:10:16;;;;;;;12.75;3.00;;;;;;;5.45;100.00;101160.13;5056128;28;20021;-80
2023/12/30 05:12:44;;;;;;;17.42;3.13;;;;;;;5.51;100.00;101156.50;5056092;28;20025;-80
2023/12/30 05:15:12;;;;;;;20.33;3.42;;;;;;;5.56;100.00;101169.97;5056126;28;20032;-80
2023/12/30 05:17:38;;;;;;;14.25;2.85;;;;;;;5.49;100.00;101146.28;5056115;28;20036;-81
2023/12/30 05:20:06;;;;;;;17.48;3.53;;;;;;;5.60;100.00;101172.34;5056086;28;20436;-80
2023/12/30 05:22:31;;;;;;;15.75;3.05;;;;;;;5.23;100.00;101119.09;5056016;28;20020;-81
2023/12/30 05:24:57;;;;;;;21.83;3.45;;;;;;;5.58;100.00;101170.75;5054538;28;20128;-80
2023/12/30 05:27:22;;;;;;;14.68;2.78;;;;;;;5.50;100.00;101153.09;5062296;23;20081;-81
2023/12/30 05:29:47;;;;;;;13.98;3.05;;;;;;;5.44;100.00;101146.47;5055907;28;20442;-81
2023/12/30 05:32:13;;;;;;;12.02;2.85;;;;;;;5.26;100.00;101116.41;5037360;28;20107;-81
2023/12/30 05:34:38;;;;;;;13.07;2.63;;;;;;;5.55;100.00;101170.88;5055799;28;20096;-81
2023/12/30 05:37:04;;;;;;;22.10;3.55;;;;;;;5.51;100.00;101174.44;5055698;28;20495;-80
2023/12/30 05:39:29;;;;;;;18.42;3.28;;;;;;;5.44;100.00;101177.22;5055364;28;20029;-80
2023/12/30 05:41:55;;;;;;;15.18;2.78;;;;;;;5.25;100.00;101150.59;5055587;28;20057;-80
2023/12/30 05:44:20;;;;;;;14.80;3.42;;;;;;;5.34;100.00;101180.16;5062279;23;20056;-80
2023/12/30 05:46:45;;;;;;;12.52;3.63;;;;;;;5.28;100.00;101185.50;5055474;28;20634;-81
2023/12/30 05:49:10;;;;;;;16.30;3.17;;;;;;;5.24;100.00;101189.06;5037116;28;20052;-81
2023/12/30 05:51:41;;;;;;;17.52;3.67;;;;;;;4.97;100.00;101152.44;5055091;28;20074;-81
2023/12/30 05:54:09;;;;;;;19.40;3.20;;;;;;;5.19;100.00;101204.56;5055369;28;20408;-81
2023/12/30 05:56:34;;;;;;;15.20;3.38;;;;;;;5.26;100.00;101203.47;5055257;28;20110;-79
2023/12/30 05:58:59;;;;;;;15.65;3.33;;;;;;;5.29;100.00;101199.97;5055083;28;20052;-79
2023/12/30 06:01:25;;;;;;;12.75;3.13;;;;;;;5.24;100.00;101197.56;5055353;28;20021;-79
2023/12/30 06:03:50;;;;;;;14.07;2.92;;;;;;;5.22;100.00;101198.53;5054081;28;20021;-80
2023/12/30 06:06:15;;;;;;;16.55;2.88;;;;;;;5.21;100.00;101191.69;5055019;28;20033;-80
2023/12/30 06:08:41;;;;;;;11.80;3.03;;;;;;;5.03;100.00;101165.03;5054973;28;20028;-80
2023/12/30 06:11:06;;;;;;;15.93;3.33;;;;;;;5.19;100.00;101192.59;5055188;28;20041;-79
2023/12/30 06:13:34;;;;;;;21.55;3.78;;;;;;;4.99;100.00;101164.28;5054681;28;20025;-81
2023/12/30 06:15:59;;;;;;;15.88;3.40;;;;;;;5.16;100.00;101192.72;5055030;28;20100;-81
2023/12/30 06:18:30;;;;;;;17.13;2.90;;;;;;;5.18;100.00;101196.03;5055168;28;20108;-80
2023/12/30 06:20:56;;;;;;;20.80;4.07;;;;;;;5.10;100.00;101200.59;5054989;28;20107;-80
2023/12/30 06:23:21;;;;;;;20.27;3.30;;;;;;;4.98;100.00;101185.66;5054824;28;20063;-81
2023/12/30 06:25:46;;;;;;;14.73;3.75;;;;;;;5.07;100.00;101205.81;5055066;28;20078;-81
2023/12/30 06:28:12;;;;;;;16.38;3.50;;;;;;;5.06;100.00;101209.28;5055195;28;20445;-81
2023/12/30 06:30:37;;;;;;;14.35;3.88;;;;;;;4.84;100.00;101175.91;5054988;28;20056;-80
2023/12/30 06:33:06;;;;;;;18.58;3.60;;;;;;;5.00;100.00;101198.41;5036763;28;20033;-80
2023/12/30 06:35:33;;;;;;;16.55;3.13;;;;;;;5.07;100.00;101218.63;5054338;28;20048;-81
2023/12/30 06:37:58;;;;;;;14.82;3.08;;;;;;;4.87;100.00;101188.59;5054602;28;20442;-80
2023/12/30 06:40:24;;;;;;;18.75;3.38;;;;;;;5.06;100.00;101227.19;5054771;28;20113;-80
2023/12/30 06:42:49;;;;;;;13.13;3.83;;;;;;;4.94;100.00;101206.31;5054414;28;20041;-80
2023/12/30 06:45:14;;;;;;;22.13;3.42;;;;;;;5.00;100.00;101226.56;5054499;28;20111;-81
2023/12/30 06:47:42;;;;;;;17.77;3.60;;;;;;;4.98;100.00;101225.78;5054113;28;20090;-81
2023/12/30 06:50:07;;;;;;;15.07;3.70;;;;;;;4.50;100.00;101144.63;5054446;28;20028;-80
2023/12/30 06:52:33;;;;;;;17.15;2.95;;;;;;;4.85;100.00;101197.22;5054253;28;20029;-81
2023/12/30 06:54:59;;;;;;;15.75;3.20;;;;;;;4.81;100.00;101196.44;5054193;28;20021;-81
2023/12/30 06:57:25;;;;;;;20.00;3.47;;;;;;;4.98;100.00;101233.44;5053919;28;20082;-80
2023/12/30 06:59:50;;;;;;;18.73;3.50;;;;;;;4.94;100.00;101219.09;5053927;28;20468;-80
2023/12/30 07:02:16;;;;;;;16.23;3.28;;;;;;;4.99;100.00;101224.88;5054121;28;20154;-80
2023/12/30 07:04:41;;;;;;;17.20;3.15;;;;;;;4.94;100.00;101229.34;5054081;28;20469;-80
2023/12/30 07:07:06;;;;;;;20.38;4.00;;;;;;;4.89;100.00;101235.41;5508247;23;20520;-79
2023/12/30 07:09:32;;;;;;;19.45;3.90;;;;;;;4.72;100.00;101209.56;5053783;28;20032;-80
2023/12/30 07:11:57;;;;;;;14.75;3.15;;;;;;;4.78;100.00;101205.97;5053791;28;20028;-80
2023/12/30 07:14:22;;;;;;;18.95;3.33;;;;;;;4.92;100.00;101223.41;5052138;28;20104;-81
2023/12/30 07:16:49;;;;;;;17.75;2.90;;;;;;;4.92;100.00;101226.84;5053772;28;20029;-79
2023/12/30 07:19:14;;;;;;;18.63;3.22;;;;;;;5.03;100.00;101234.16;5053762;28;20628;-80
2023/12/30 07:21:40;;;;;;;12.82;2.90;;;;;;;5.03;100.00;101234.16;5053904;28;20126;-80
2023/12/30 07:24:06;;;;;;;18.05;3.15;;;;;;;4.90;100.00;101219.19;5052127;28;20017;-76
2023/12/30 07:26:32;;;;;;;19.30;3.38;;;;;;;4.97;100.00;101222.38;5054061;28;20473;-77
2023/12/30 07:28:57;;;;;;;16.35;3.35;;;;;;;4.83;100.00;101201.53;5053640;28;20028;-78
2023/12/30 07:31:22;;;;;;;14.73;2.97;;;;;;;5.01;100.00;101234.16;5053232;28;20035;-79
2023/12/30 07:33:49;;;;;;;18.60;3.58;;;;;;;4.90;100.00;101224.28;5053312;28;20037;-80
2023/12/30 07:36:14;;;;;;;14.88;3.70;;;;;;;4.91;100.00;101232.81;5053663;28;20071;-77
2023/12/30 07:38:39;;;;;;;16.60;3.03;;;;;;;4.98;100.00;101238.56;5053405;28;20024;-77
2023/12/30 07:41:05;;;;;;;17.77;3.22;;;;;;;4.94;100.00;101234.44;5053195;28;20052;-79
2023/12/30 07:43:30;;;;;;;21.08;3.25;;;;;;;4.76;100.00;101216.25;5053204;28;20032;-83
2023/12/30 07:45:56;;;;;;;16.50;2.88;;;;;;;4.94;100.00;101250.63;5052916;28;20116;-80
2023/12/30 07:48:21;;;;;;;14.75;3.28;;;;;;;4.97;100.00;101254.81;5053162;28;20029;-80
2023/12/30 07:50:47;;;;;;;18.83;3.92;;;;;;;4.83;100.00;101237.38;5053661;28;20079;-81
2023/12/30 07:53:12;;;;;;;16.73;2.50;;;;;;;4.59;100.00;101198.03;5052978;28;20064;-80
2023/12/30 07:55:37;;;;;;;12.93;2.95;;;;;;;4.37;100.00;101164.66;5053063;28;20471;-81
2023/12/30 07:58:03;;;;;;;12.90;3.00;;;;;;;4.78;100.00;101224.72;5052871;28;20078;-82
2023/12/30 08:00:28;;;;;;;19.05;3.85;;;;;;;5.01;100.00;101269.16;5053099;28;20427;-79
2023/12/30 08:02:53;;;;;;;14.82;3.03;;;;;;;5.03;100.00;101272.53;5050949;28;20071;-81
2023/12/30 08:05:19;;;;;;;16.95;3.65;;;;;;;5.11;100.00;101283.34;5035071;28;20075;-80
2023/12/30 08:07:44;;;;;;;12.80;3.22;;;;;;;4.97;100.00;101260.78;5052882;28;20569;-79
2023/12/30 08:10:11;;;;;;;15.57;3.55;;;;;;;5.15;100.00;101283.19;5052729;28;20025;-78
2023/12/30 08:12:37;;;;;;;19.92;3.17;;;;;;;5.05;100.00;101263.09;5052546;28;20070;-79
2023/12/30 08:15:04;;;;;;;15.60;3.00;;;;;;;5.12;100.00;101277.38;5052672;28;20116;-80
2023/12/30 08:17:30;;;;;;;19.15;3.10;;;;;;;5.07;100.00;101240.81;5052901;28;20035;-80
2023/12/30 08:19:55;;;;;;;14.23;3.45;;;;;;;5.36;100.00;101273.13;5052674;28;20029;-79
2023/12/30 08:22:22;;;;;;;17.83;3.08;;;;;;;5.34;100.00;101255.25;5052353;28;20036;-82
2023/12/30 08:24:50;;;;;;;14.30;3.17;;;;;;;5.50;100.00;101276.03;5052759;28;20103;-81
2023/12/30 08:27:15;;;;;;;12.68;3.08;;;;;;;5.45;100.00;101271.09;5051710;28;20124;-81
2023/12/30 08:29:40;;;;;;;11.65;3.28;;;;;;;5.59;100.00;101282.56;5052211;28;20592;-78
2023/12/30 08:32:06;;;;;;;17.27;3.17;;;;;;;5.64;100.00;101286.66;5052672;28;20036;-79
2023/12/30 08:34:32;;;;;;;16.33;3.00;;;;;;;5.66;100.00;101281.47;5052607;28;20013;-78
2023/12/30 08:36:58;;;;;;;15.35;2.95;;;;;;;5.77;100.00;101284.47;5052348;28;20040;-79
2023/12/30 08:39:24;;;;;;;19.77;3.00;;;;;;;5.56;100.00;101247.66;5052489;28;20028;-78
2023/12/30 08:41:50;;;;;;;17.00;3.50;;;;;;;5.72;100.00;101258.19;5050944;28;20099;-75
2023/12/30 08:44:15;;;;;;;13.90;2.65;;;;;;;5.90;100.00;101278.06;5034498;28;20072;-74
2023/12/30 08:46:40;;;;;;;14.43;3.03;;;;;;;5.95;100.00;101271.03;5052189;28;20032;-78
2023/12/30 08:49:06;;;;;;;17.58;3.03;;;;;;;5.81;100.00;101249.34;5052097;28;20090;-78
2023/12/30 08:51:32;;;;;;;14.55;2.97;;;;;;;5.98;100.00;101272.66;5052110;28;20083;-78
2023/12/30 08:53:57;;;;;;;11.93;2.85;;;;;;;5.87;100.00;101244.81;5052035;28;20025;-77
2023/12/30 08:56:23;;;;;;;21.23;3.50;;;;;;;5.91;100.00;101254.13;5052222;28;20025;-77
2023/12/30 08:58:48;;;;;;;17.58;4.40;;;;;;;6.11;100.00;101286.72;5052222;28;20032;-77
2023/12/30 09:01:14;;;;;;;16.83;4.30;;;;;;;5.76;100.00;101224.72;5052112;28;20548;-78
2023/12/30 09:03:39;;;;;;;15.80;2.75;;;;;;;6.20;100.00;101295.78;5052015;28;20115;-77
2023/12/30 09:06:05;;;;;;;19.13;3.90;;;;;;;6.25;100.00;101302.41;5052251;28;20397;-79
2023/12/30 09:08:30;;;;;;;15.77;3.63;;;;;;;6.30;100.00;101304.81;5051952;28;20049;-78
2023/12/30 09:10:56;;;;;;;14.40;2.97;;;;;;;6.35;100.00;101302.91;5052183;28;20465;-78
2023/12/30 09:13:22;;;;;;;14.57;3.25;;;;;;;6.40;100.00;101315.56;5051927;28;20021;-78
2023/12/30 09:15:47;;;;;;;12.65;3.35;;;;;;;6.25;100.00;101270.78;5051970;28;20512;-78
2023/12/30 09:18:13;;;;;;;12.80;3.97;;;;;;;6.48;100.00;101313.50;5052201;28;20118;-80
2023/12/30 09:20:40;;;;;;;17.10;3.97;;;;;;;6.53;100.00;101316.75;5051978;28;20028;-78
2023/12/30 09:23:05;;;;;;;15.90;3.28;;;;;;;6.56;100.00;101314.06;5050429;28;20039;-74
2023/12/30 09:25:31;;;;;;;15.63;3.60;;;;;;;6.33;100.00;101279.03;5052580;28;20100;-78
2023/12/30 09:27:56;;;;;;;16.15;4.22;;;;;;;6.61;100.00;101318.13;5052429;28;20025;-77
2023/12/30 09:30:23;;;;;;;14.75;3.67;;;;;;;6.59;100.00;101317.38;5051778;28;20048;-76
2023/12/30 09:32:48;;;;;;;18.63;3.85;;;;;;;6.69;100.00;101327.28;5051946;28;20025;-75
2023/12/30 09:35:13;;;;;;;16.17;4.07;;;;;;;6.71;100.00;101326.31;5051932;28;20508;-77
2023/12/30 09:37:39;;;;;;;16.98;3.65;;;;;;;6.74;100.00;101322.78;5053050;28;20021;-76
2023/12/30 09:40:05;;;;;;;12.23;2.90;;;;;;;6.77;100.00;101340.63;5055526;28;20383;-77
2023/12/30 09:42:30;;;;;;;15.75;3.78;;;;;;;6.68;100.00;101317.88;5055436;28;20036;-76
2023/12/30 09:44:58;;;;;;;17.90;4.30;;;;;;;6.85;100.00;101328.31;5055259;28;20100;-76
2023/12/30 09:47:24;;;;;;;15.77;3.60;;;;;;;6.90;100.00;101337.53;5055227;28;20029;-76
2023/12/30 09:49:50;;;;;;;17.27;4.25;;;;;;;6.87;100.00;101323.97;5055715;28;20439;-76
2023/12/30 09:52:15;;;;;;;16.08;3.80;;;;;;;6.85;100.00;101318.06;5055205;28;20129;-76
2023/12/30 09:54:41;;;;;;;15.82;3.83;;;;;;;6.93;100.00;101312.63;5053690;28;20044;-78
2023/12/30 09:57:06;;;;;;;16.52;3.97;;;;;;;6.86;100.00;101301.75;5055266;28;20025;-76
2023/12/30 09:59:37;;;;;;;16.55;4.43;;;;;;;7.04;100.00;101331.84;5055359;28;20036;-76
2023/12/30 10:02:09;;;;;;;16.30;4.30;;;;;;;6.99;100.00;101299.56;5055104;28;20392;-77
2023/12/30 10:04:35;;;;;;;12.15;3.80;;;;;;;7.18;100.00;101331.31;5054963;28;20451;-79
2023/12/30 10:07:01;;;;;;;16.25;5.15;;;;;;;7.18;100.00;101339.84;5054853;28;20080;-77
2023/12/30 10:09:29;;;;;;;17.98;5.03;;;;;;;6.88;100.00;101287.13;5055022;28;20067;-78
2023/12/30 10:11:54;;;;;;;15.98;4.53;;;;;;;7.19;100.00;101338.09;5054993;28;20400;-76
2023/12/30 10:14:20;;;;;;;19.55;5.60;;;;;;;7.15;100.00;101328.84;5055073;28;20025;-74
2023/12/30 10:16:46;;;;;;;15.65;4.88;;;;;;;7.12;100.00;101326.41;5054735;28;20024;-74
2023/12/30 10:19:16;;;;;;;18.17;5.72;;;;;;;7.05;100.00;101304.44;5054903;28;20024;-75
2023/12/30 10:21:42;;;;;;;20.27;5.35;;;;;;;7.24;100.00;101340.47;5054908;28;20032;-76
2023/12/30 10:24:07;;;;;;;18.73;5.78;;;;;;;7.11;100.00;101309.31;5054839;28;20025;-77
2023/12/30 10:26:36;;;;;;;25.92;6.18;;;;;;;7.27;100.00;101335.19;5054652;28;20388;-76
2023/12/30 10:29:02;;;;;;;17.98;5.80;;;;;;;7.21;100.00;101312.34;5154827;23;20045;-75
2023/12/30 10:31:28;;;;;;;17.85;6.53;;;;;;;7.28;100.00;101317.19;5054429;28;20417;-78
2023/12/30 10:33:54;;;;;;;20.23;6.22;;;;;;;7.43;100.00;101328.53;5036215;28;20037;-79
2023/12/30 10:36:19;;;;;;;18.75;6.18;;;;;;;7.57;100.00;101336.53;5054930;28;20025;-79
2023/12/30 10:38:46;;;;;;;22.95;10.75;;;;;;;7.44;100.00;101310.47;5054536;28;20053;-79
2023/12/30 10:41:12;;;;;;;16.00;6.70;;;;;;;7.74;100.00;101346.06;5054458;28;20151;-76
2023/12/30 10:43:38;;;;;;;19.88;7.07;;;;;;;7.79;100.00;101348.44;5052065;28;20036;-75
2023/12/30 10:46:09;;;;;;;20.48;6.25;;;;;;;7.84;100.00;101343.94;5034261;28;20473;-77
2023/12/30 10:49:03;;;;;;;17.77;6.28;;;;;;;7.84;100.00;101352.47;5033840;28;20460;-76
2023/12/30 10:51:32;;;;;;;18.00;5.90;;;;;;;7.92;100.00;101344.44;5034556;28;20100;-77
2023/12/30 10:54:07;;;;;;;20.33;6.65;;;;;;;7.97;100.00;101338.22;5034327;28;20079;-76
2023/12/30 10:56:40;;;;;;;18.83;6.43;;;;;;;7.96;100.00;101323.69;5034260;28;20026;-77
2023/12/30 10:59:07;;;;;;;17.05;6.45;;;;;;;8.11;100.00;101334.19;5038325;28;20017;-74
2023/12/30 11:01:33;;;;;;;21.83;6.68;;;;;;;8.09;100.00;101318.81;5054730;28;20025;-75
2023/12/30 11:04:01;;;;;;;20.45;7.53;;;;;;;8.12;100.00;101302.41;5054404;28;20071;-77
2023/12/30 11:06:39;;;;;;;16.98;6.63;;;;;;;8.07;100.00;101287.19;5041802;28;20033;-74
2023/12/30 11:09:08;;;;;;;22.98;6.63;;;;;;;8.26;100.00;101312.91;5033726;28;20057;-77
2023/12/30 11:11:33;;;;;;;18.10;6.72;;;;;;;8.28;100.00;101314.50;5034068;28;20048;-78
2023/12/30 11:13:59;;;;;;;18.23;6.78;;;;;;;8.30;100.00;101304.16;5036811;28;20067;-73
2023/12/30 11:16:24;;;;;;;18.20;6.53;;;;;;;8.37;100.00;101313.28;5053694;28;20029;-78